sensor_id;sensor_type;location;lat;lon;timestamp;P1;durP1;ratioP1;P2;durP2;ratioP2
14876;SDS011;69691;48.172;17.070;2023-04-29T00:00:02;23.20;;;13.05;;
14876;SDS011;69691;48.172;17.070;2023-04-29T00:02:36;20.00;;;12.25;;
14876;SDS011;69691;48.172;17.070;2023-04-29T00:05:02;19.83;;;12.55;;
14876;SDS011;69691;48.172;17.070;2023-04-29T00:07:32;25.13;;;12.98;;
14876;SDS011;69691;48.172;17.070;2023-04-29T00:09:58;20.77;;;13.23;;
14876;SDS011;69691;48.172;17.070;2023-04-29T00:12:24;22.42;;;12.23;;
14876;SDS011;69691;48.172;17.070;2023-04-29T00:14:50;24.50;;;12.68;;
14876;SDS011;69691;48.172;17.070;2023-04-29T00:17:17;18.27;;;12.25;;
14876;SDS011;69691;48.172;17.070;2023-04-29T00:19:43;19.40;;;12.32;;
14876;SDS011;69691;48.172;17.070;2023-04-29T00:22:09;20.33;;;12.52;;
14876;SDS011;69691;48.172;17.070;2023-04-29T00:24:35;19.85;;;11.98;;
14876;SDS011;69691;48.172;17.070;2023-04-29T00:27:01;24.88;;;13.38;;
14876;SDS011;69691;48.172;17.070;2023-04-29T00:29:27;23.70;;;13.85;;
14876;SDS011;69691;48.172;17.070;2023-04-29T00:31:53;21.88;;;14.20;;
14876;SDS011;69691;48.172;17.070;2023-04-29T00:34:19;19.73;;;12.73;;
14876;SDS011;69691;48.172;17.070;2023-04-29T00:36:45;17.33;;;12.00;;
14876;SDS011;69691;48.172;17.070;2023-04-29T00:39:11;22.27;;;13.25;;
14876;SDS011;69691;48.172;17.070;2023-04-29T00:41:37;21.23;;;13.68;;
14876;SDS011;69691;48.172;17.070;2023-04-29T00:44:03;25.80;;;13.68;;
14876;SDS011;69691;48.172;17.070;2023-04-29T00:46:29;16.52;;;13.07;;
14876;SDS011;69691;48.172;17.070;2023-04-29T00:48:55;23.50;;;14.45;;
14876;SDS011;69691;48.172;17.070;2023-04-29T00:51:21;20.60;;;13.40;;
14876;SDS011;69691;48.172;17.070;2023-04-29T00:53:47;20.23;;;12.77;;
14876;SDS011;69691;48.172;17.070;2023-04-29T00:56:14;20.60;;;13.35;;
14876;SDS011;69691;48.172;17.070;2023-04-29T00:58:40;20.52;;;13.02;;
14876;SDS011;69691;48.172;17.070;2023-04-29T01:01:13;21.20;;;13.80;;
14876;SDS011;69691;48.172;17.070;2023-04-29T01:03:43;16.75;;;12.77;;
14876;SDS011;69691;48.172;17.070;2023-04-29T01:12:04;21.00;;;13.18;;
14876;SDS011;69691;48.172;17.070;2023-04-29T01:14:39;18.52;;;13.35;;
14876;SDS011;69691;48.172;17.070;2023-04-29T01:17:16;21.23;;;14.18;;
14876;SDS011;69691;48.172;17.070;2023-04-29T01:22:15;18.73;;;13.30;;
14876;SDS011;69691;48.172;17.070;2023-04-29T01:24:46;21.20;;;13.88;;
14876;SDS011;69691;48.172;17.070;2023-04-29T01:27:22;18.95;;;13.82;;
14876;SDS011;69691;48.172;17.070;2023-04-29T01:33:14;20.45;;;13.65;;
14876;SDS011;69691;48.172;17.070;2023-04-29T01:38:25;21.23;;;14.15;;
14876;SDS011;69691;48.172;17.070;2023-04-29T01:41:15;18.63;;;14.10;;
14876;SDS011;69691;48.172;17.070;2023-04-29T01:43:51;22.35;;;14.25;;
14876;SDS011;69691;48.172;17.070;2023-04-29T01:46:22;26.33;;;13.68;;
14876;SDS011;69691;48.172;17.070;2023-04-29T01:48:52;20.35;;;13.43;;
14876;SDS011;69691;48.172;17.070;2023-04-29T01:51:19;20.55;;;13.63;;
14876;SDS011;69691;48.172;17.070;2023-04-29T01:53:45;25.52;;;14.07;;
14876;SDS011;69691;48.172;17.070;2023-04-29T01:56:11;25.08;;;12.57;;
14876;SDS011;69691;48.172;17.070;2023-04-29T01:59:06;19.85;;;13.50;;
14876;SDS011;69691;48.172;17.070;2023-04-29T02:01:35;25.58;;;13.40;;
14876;SDS011;69691;48.172;17.070;2023-04-29T02:04:02;23.75;;;13.38;;
14876;SDS011;69691;48.172;17.070;2023-04-29T02:06:28;20.25;;;13.55;;
14876;SDS011;69691;48.172;17.070;2023-04-29T02:08:59;20.67;;;13.25;;
14876;SDS011;69691;48.172;17.070;2023-04-29T02:11:24;19.45;;;14.60;;
14876;SDS011;69691;48.172;17.070;2023-04-29T02:13:53;22.40;;;14.45;;
14876;SDS011;69691;48.172;17.070;2023-04-29T02:16:20;21.98;;;14.38;;
14876;SDS011;69691;48.172;17.070;2023-04-29T02:18:56;21.05;;;14.70;;
14876;SDS011;69691;48.172;17.070;2023-04-29T02:21:22;25.10;;;16.35;;
14876;SDS011;69691;48.172;17.070;2023-04-29T02:23:48;22.67;;;15.30;;
14876;SDS011;69691;48.172;17.070;2023-04-29T02:26:15;27.10;;;15.32;;
14876;SDS011;69691;48.172;17.070;2023-04-29T02:28:41;26.60;;;16.20;;
14876;SDS011;69691;48.172;17.070;2023-04-29T02:31:07;19.85;;;15.43;;
14876;SDS011;69691;48.172;17.070;2023-04-29T02:33:33;22.08;;;14.77;;
14876;SDS011;69691;48.172;17.070;2023-04-29T02:35:59;25.17;;;13.82;;
14876;SDS011;69691;48.172;17.070;2023-04-29T02:38:25;22.67;;;14.98;;
14876;SDS011;69691;48.172;17.070;2023-04-29T02:40:51;25.73;;;14.48;;
14876;SDS011;69691;48.172;17.070;2023-04-29T02:43:17;24.70;;;15.27;;
14876;SDS011;69691;48.172;17.070;2023-04-29T02:45:43;24.73;;;14.60;;
14876;SDS011;69691;48.172;17.070;2023-04-29T02:48:10;19.02;;;13.77;;
14876;SDS011;69691;48.172;17.070;2023-04-29T02:50:35;19.65;;;14.25;;
14876;SDS011;69691;48.172;17.070;2023-04-29T02:53:02;21.20;;;15.10;;
14876;SDS011;69691;48.172;17.070;2023-04-29T02:55:29;23.73;;;15.27;;
14876;SDS011;69691;48.172;17.070;2023-04-29T02:57:59;26.33;;;15.38;;
14876;SDS011;69691;48.172;17.070;2023-04-29T03:00:25;21.63;;;15.10;;
14876;SDS011;69691;48.172;17.070;2023-04-29T03:02:51;24.33;;;15.25;;
14876;SDS011;69691;48.172;17.070;2023-04-29T03:05:17;21.33;;;15.05;;
14876;SDS011;69691;48.172;17.070;2023-04-29T03:07:43;21.73;;;14.88;;
14876;SDS011;69691;48.172;17.070;2023-04-29T03:10:09;26.02;;;15.18;;
14876;SDS011;69691;48.172;17.070;2023-04-29T03:12:36;26.67;;;16.80;;
14876;SDS011;69691;48.172;17.070;2023-04-29T03:15:04;23.65;;;15.98;;
14876;SDS011;69691;48.172;17.070;2023-04-29T03:17:34;30.52;;;15.70;;
14876;SDS011;69691;48.172;17.070;2023-04-29T03:20:00;20.50;;;14.35;;
14876;SDS011;69691;48.172;17.070;2023-04-29T03:22:28;24.05;;;16.60;;
14876;SDS011;69691;48.172;17.070;2023-04-29T03:24:53;22.15;;;15.35;;
14876;SDS011;69691;48.172;17.070;2023-04-29T03:27:20;23.85;;;15.95;;
14876;SDS011;69691;48.172;17.070;2023-04-29T03:29:46;22.58;;;15.73;;
14876;SDS011;69691;48.172;17.070;2023-04-29T03:32:13;23.90;;;15.38;;
14876;SDS011;69691;48.172;17.070;2023-04-29T03:34:39;21.88;;;15.35;;
14876;SDS011;69691;48.172;17.070;2023-04-29T03:37:25;21.10;;;15.30;;
14876;SDS011;69691;48.172;17.070;2023-04-29T03:39:59;26.05;;;14.80;;
14876;SDS011;69691;48.172;17.070;2023-04-29T03:42:25;21.73;;;14.48;;
14876;SDS011;69691;48.172;17.070;2023-04-29T03:44:51;23.48;;;15.90;;
14876;SDS011;69691;48.172;17.070;2023-04-29T03:47:16;22.33;;;15.18;;
14876;SDS011;69691;48.172;17.070;2023-04-29T03:49:44;29.35;;;17.73;;
14876;SDS011;69691;48.172;17.070;2023-04-29T03:52:10;21.27;;;16.27;;
14876;SDS011;69691;48.172;17.070;2023-04-29T03:54:38;26.05;;;16.75;;
14876;SDS011;69691;48.172;17.070;2023-04-29T03:57:04;23.33;;;15.65;;
14876;SDS011;69691;48.172;17.070;2023-04-29T03:59:30;26.10;;;16.10;;
14876;SDS011;69691;48.172;17.070;2023-04-29T04:01:56;26.85;;;15.50;;
14876;SDS011;69691;48.172;17.070;2023-04-29T04:04:22;24.60;;;15.68;;
14876;SDS011;69691;48.172;17.070;2023-04-29T04:06:49;21.05;;;15.85;;
14876;SDS011;69691;48.172;17.070;2023-04-29T04:09:17;24.67;;;15.15;;
14876;SDS011;69691;48.172;17.070;2023-04-29T04:11:43;24.73;;;16.02;;
14876;SDS011;69691;48.172;17.070;2023-04-29T04:14:10;26.58;;;15.40;;
14876;SDS011;69691;48.172;17.070;2023-04-29T04:16:36;21.63;;;15.45;;
14876;SDS011;69691;48.172;17.070;2023-04-29T04:19:02;19.95;;;14.05;;
14876;SDS011;69691;48.172;17.070;2023-04-29T04:21:31;20.98;;;13.68;;
14876;SDS011;69691;48.172;17.070;2023-04-29T04:24:05;19.50;;;14.70;;
14876;SDS011;69691;48.172;17.070;2023-04-29T04:26:31;25.08;;;15.80;;
14876;SDS011;69691;48.172;17.070;2023-04-29T04:29:02;24.92;;;15.50;;
14876;SDS011;69691;48.172;17.070;2023-04-29T04:31:38;23.70;;;14.52;;
14876;SDS011;69691;48.172;17.070;2023-04-29T04:34:05;28.92;;;15.65;;
14876;SDS011;69691;48.172;17.070;2023-04-29T04:36:31;30.10;;;15.43;;
14876;SDS011;69691;48.172;17.070;2023-04-29T04:38:57;23.55;;;14.95;;
14876;SDS011;69691;48.172;17.070;2023-04-29T04:41:23;24.85;;;14.23;;
14876;SDS011;69691;48.172;17.070;2023-04-29T04:43:51;22.63;;;15.45;;
14876;SDS011;69691;48.172;17.070;2023-04-29T04:46:27;20.48;;;15.13;;
14876;SDS011;69691;48.172;17.070;2023-04-29T04:49:13;32.42;;;16.42;;
14876;SDS011;69691;48.172;17.070;2023-04-29T04:51:46;29.23;;;15.48;;
14876;SDS011;69691;48.172;17.070;2023-04-29T04:54:12;29.88;;;14.35;;
14876;SDS011;69691;48.172;17.070;2023-04-29T04:56:38;26.08;;;13.63;;
14876;SDS011;69691;48.172;17.070;2023-04-29T04:59:05;28.17;;;13.15;;
14876;SDS011;69691;48.172;17.070;2023-04-29T05:01:34;27.63;;;13.77;;
14876;SDS011;69691;48.172;17.070;2023-04-29T05:04:00;23.50;;;13.73;;
14876;SDS011;69691;48.172;17.070;2023-04-29T05:06:28;28.45;;;13.82;;
14876;SDS011;69691;48.172;17.070;2023-04-29T05:08:54;21.60;;;13.82;;
14876;SDS011;69691;48.172;17.070;2023-04-29T05:11:22;23.52;;;13.93;;
14876;SDS011;69691;48.172;17.070;2023-04-29T05:14:20;21.90;;;13.52;;
14876;SDS011;69691;48.172;17.070;2023-04-29T05:16:46;26.95;;;14.18;;
14876;SDS011;69691;48.172;17.070;2023-04-29T05:19:12;25.73;;;14.35;;
14876;SDS011;69691;48.172;17.070;2023-04-29T05:21:39;23.15;;;14.23;;
14876;SDS011;69691;48.172;17.070;2023-04-29T05:24:07;25.80;;;13.88;;
14876;SDS011;69691;48.172;17.070;2023-04-29T05:26:33;28.27;;;13.95;;
14876;SDS011;69691;48.172;17.070;2023-04-29T05:29:00;23.30;;;13.88;;
14876;SDS011;69691;48.172;17.070;2023-04-29T05:31:28;25.98;;;14.40;;
14876;SDS011;69691;48.172;17.070;2023-04-29T05:33:56;29.50;;;14.35;;
14876;SDS011;69691;48.172;17.070;2023-04-29T05:36:23;26.40;;;14.18;;
14876;SDS011;69691;48.172;17.070;2023-04-29T05:38:49;26.67;;;13.93;;
14876;SDS011;69691;48.172;17.070;2023-04-29T05:41:16;27.02;;;13.73;;
14876;SDS011;69691;48.172;17.070;2023-04-29T05:44:08;23.45;;;13.30;;
14876;SDS011;69691;48.172;17.070;2023-04-29T05:46:34;25.52;;;13.85;;
14876;SDS011;69691;48.172;17.070;2023-04-29T05:49:00;26.55;;;14.63;;
14876;SDS011;69691;48.172;17.070;2023-04-29T05:51:26;25.33;;;14.27;;
14876;SDS011;69691;48.172;17.070;2023-04-29T05:53:53;30.73;;;14.30;;
14876;SDS011;69691;48.172;17.070;2023-04-29T05:56:19;27.75;;;15.27;;
14876;SDS011;69691;48.172;17.070;2023-04-29T05:58:46;27.15;;;14.98;;
14876;SDS011;69691;48.172;17.070;2023-04-29T06:01:12;23.10;;;15.70;;
14876;SDS011;69691;48.172;17.070;2023-04-29T06:03:38;32.13;;;15.68;;
14876;SDS011;69691;48.172;17.070;2023-04-29T06:06:21;33.42;;;16.63;;
14876;SDS011;69691;48.172;17.070;2023-04-29T06:09:06;31.65;;;18.30;;
14876;SDS011;69691;48.172;17.070;2023-04-29T06:11:32;27.58;;;16.55;;
14876;SDS011;69691;48.172;17.070;2023-04-29T06:14:00;32.72;;;17.52;;
14876;SDS011;69691;48.172;17.070;2023-04-29T06:16:26;31.90;;;18.80;;
14876;SDS011;69691;48.172;17.070;2023-04-29T06:18:53;36.80;;;19.48;;
14876;SDS011;69691;48.172;17.070;2023-04-29T06:21:19;25.83;;;17.70;;
14876;SDS011;69691;48.172;17.070;2023-04-29T06:23:45;31.38;;;18.00;;
14876;SDS011;69691;48.172;17.070;2023-04-29T06:26:15;37.83;;;18.70;;
14876;SDS011;69691;48.172;17.070;2023-04-29T06:28:41;30.02;;;17.83;;
14876;SDS011;69691;48.172;17.070;2023-04-29T06:31:07;32.25;;;18.50;;
14876;SDS011;69691;48.172;17.070;2023-04-29T06:33:33;33.40;;;18.90;;
14876;SDS011;69691;48.172;17.070;2023-04-29T06:35:59;33.15;;;18.05;;
14876;SDS011;69691;48.172;17.070;2023-04-29T06:38:44;35.40;;;19.55;;
14876;SDS011;69691;48.172;17.070;2023-04-29T06:41:28;35.03;;;18.17;;
14876;SDS011;69691;48.172;17.070;2023-04-29T06:43:57;30.63;;;18.48;;
14876;SDS011;69691;48.172;17.070;2023-04-29T06:46:35;32.05;;;17.75;;
14876;SDS011;69691;48.172;17.070;2023-04-29T06:49:05;30.40;;;18.23;;
14876;SDS011;69691;48.172;17.070;2023-04-29T06:51:31;30.20;;;17.98;;
14876;SDS011;69691;48.172;17.070;2023-04-29T06:53:58;30.10;;;16.15;;
14876;SDS011;69691;48.172;17.070;2023-04-29T06:56:24;31.95;;;18.30;;
14876;SDS011;69691;48.172;17.070;2023-04-29T06:58:50;32.03;;;17.83;;
14876;SDS011;69691;48.172;17.070;2023-04-29T07:01:15;33.67;;;18.52;;
14876;SDS011;69691;48.172;17.070;2023-04-29T07:03:42;29.58;;;16.73;;
14876;SDS011;69691;48.172;17.070;2023-04-29T07:06:07;25.25;;;17.25;;
14876;SDS011;69691;48.172;17.070;2023-04-29T07:08:33;27.30;;;16.45;;
14876;SDS011;69691;48.172;17.070;2023-04-29T07:10:59;27.75;;;16.02;;
14876;SDS011;69691;48.172;17.070;2023-04-29T07:13:25;34.13;;;16.90;;
14876;SDS011;69691;48.172;17.070;2023-04-29T07:15:51;26.05;;;15.93;;
14876;SDS011;69691;48.172;17.070;2023-04-29T07:18:17;24.42;;;15.98;;
14876;SDS011;69691;48.172;17.070;2023-04-29T07:20:43;23.95;;;15.23;;
14876;SDS011;69691;48.172;17.070;2023-04-29T07:23:10;29.98;;;15.57;;
14876;SDS011;69691;48.172;17.070;2023-04-29T07:25:36;26.75;;;15.45;;
14876;SDS011;69691;48.172;17.070;2023-04-29T07:28:03;24.15;;;15.40;;
14876;SDS011;69691;48.172;17.070;2023-04-29T07:30:29;29.00;;;16.17;;
14876;SDS011;69691;48.172;17.070;2023-04-29T07:32:55;27.70;;;16.33;;
14876;SDS011;69691;48.172;17.070;2023-04-29T07:35:22;28.45;;;17.00;;
14876;SDS011;69691;48.172;17.070;2023-04-29T07:37:48;29.30;;;16.60;;
14876;SDS011;69691;48.172;17.070;2023-04-29T07:40:14;25.98;;;14.30;;
14876;SDS011;69691;48.172;17.070;2023-04-29T07:42:41;27.40;;;15.20;;
14876;SDS011;69691;48.172;17.070;2023-04-29T07:45:07;22.85;;;14.68;;
14876;SDS011;69691;48.172;17.070;2023-04-29T07:47:33;24.50;;;15.15;;
14876;SDS011;69691;48.172;17.070;2023-04-29T07:49:59;24.52;;;14.95;;
14876;SDS011;69691;48.172;17.070;2023-04-29T07:52:25;23.20;;;14.02;;
14876;SDS011;69691;48.172;17.070;2023-04-29T07:54:51;25.50;;;15.35;;
14876;SDS011;69691;48.172;17.070;2023-04-29T07:57:19;25.77;;;15.00;;
14876;SDS011;69691;48.172;17.070;2023-04-29T07:59:45;22.27;;;13.88;;
14876;SDS011;69691;48.172;17.070;2023-04-29T08:02:16;19.65;;;14.25;;
14876;SDS011;69691;48.172;17.070;2023-04-29T08:04:42;21.30;;;13.80;;
14876;SDS011;69691;48.172;17.070;2023-04-29T08:07:10;23.73;;;14.32;;
14876;SDS011;69691;48.172;17.070;2023-04-29T08:09:37;28.38;;;15.63;;
14876;SDS011;69691;48.172;17.070;2023-04-29T08:12:03;28.98;;;15.40;;
14876;SDS011;69691;48.172;17.070;2023-04-29T08:14:30;26.85;;;15.40;;
14876;SDS011;69691;48.172;17.070;2023-04-29T08:16:57;23.92;;;14.32;;
14876;SDS011;69691;48.172;17.070;2023-04-29T08:19:23;29.63;;;14.70;;
14876;SDS011;69691;48.172;17.070;2023-04-29T08:21:49;19.65;;;13.90;;
14876;SDS011;69691;48.172;17.070;2023-04-29T08:24:16;32.40;;;14.45;;
14876;SDS011;69691;48.172;17.070;2023-04-29T08:26:41;23.25;;;13.50;;
14876;SDS011;69691;48.172;17.070;2023-04-29T08:29:07;26.00;;;14.38;;
14876;SDS011;69691;48.172;17.070;2023-04-29T08:31:33;22.13;;;14.45;;
14876;SDS011;69691;48.172;17.070;2023-04-29T08:33:59;23.15;;;13.65;;
14876;SDS011;69691;48.172;17.070;2023-04-29T08:36:25;23.35;;;13.75;;
14876;SDS011;69691;48.172;17.070;2023-04-29T08:38:53;28.40;;;12.55;;
14876;SDS011;69691;48.172;17.070;2023-04-29T08:41:20;24.10;;;12.80;;
14876;SDS011;69691;48.172;17.070;2023-04-29T08:43:46;21.92;;;12.90;;
14876;SDS011;69691;48.172;17.070;2023-04-29T08:46:12;16.35;;;12.50;;
14876;SDS011;69691;48.172;17.070;2023-04-29T08:48:38;23.95;;;12.35;;
14876;SDS011;69691;48.172;17.070;2023-04-29T08:51:05;21.67;;;11.70;;
14876;SDS011;69691;48.172;17.070;2023-04-29T08:53:31;18.90;;;11.68;;
14876;SDS011;69691;48.172;17.070;2023-04-29T08:55:59;19.83;;;11.30;;
14876;SDS011;69691;48.172;17.070;2023-04-29T08:58:35;19.15;;;12.18;;
14876;SDS011;69691;48.172;17.070;2023-04-29T09:01:08;22.40;;;12.68;;
14876;SDS011;69691;48.172;17.070;2023-04-29T09:07:07;14.70;;;10.25;;
14876;SDS011;69691;48.172;17.070;2023-04-29T09:09:35;22.05;;;12.43;;
14876;SDS011;69691;48.172;17.070;2023-04-29T09:12:01;17.65;;;11.55;;
14876;SDS011;69691;48.172;17.070;2023-04-29T09:14:27;16.48;;;11.90;;
14876;SDS011;69691;48.172;17.070;2023-04-29T09:16:57;19.55;;;11.05;;
14876;SDS011;69691;48.172;17.070;2023-04-29T09:19:28;17.33;;;10.75;;
14876;SDS011;69691;48.172;17.070;2023-04-29T09:22:00;16.42;;;11.25;;
14876;SDS011;69691;48.172;17.070;2023-04-29T09:24:29;18.85;;;12.45;;
14876;SDS011;69691;48.172;17.070;2023-04-29T09:26:56;22.05;;;12.43;;
14876;SDS011;69691;48.172;17.070;2023-04-29T09:29:23;20.55;;;11.90;;
14876;SDS011;69691;48.172;17.070;2023-04-29T09:31:49;18.52;;;12.07;;
14876;SDS011;69691;48.172;17.070;2023-04-29T09:34:29;17.52;;;11.40;;
14876;SDS011;69691;48.172;17.070;2023-04-29T09:36:57;17.15;;;11.57;;
14876;SDS011;69691;48.172;17.070;2023-04-29T09:39:23;18.88;;;12.25;;
14876;SDS011;69691;48.172;17.070;2023-04-29T09:46:56;18.15;;;12.40;;
14876;SDS011;69691;48.172;17.070;2023-04-29T09:49:28;21.75;;;13.50;;
14876;SDS011;69691;48.172;17.070;2023-04-29T09:52:03;19.45;;;13.30;;
14876;SDS011;69691;48.172;17.070;2023-04-29T09:54:36;17.77;;;12.18;;
14876;SDS011;69691;48.172;17.070;2023-04-29T09:57:04;16.08;;;13.02;;
14876;SDS011;69691;48.172;17.070;2023-04-29T09:59:32;18.48;;;13.18;;
14876;SDS011;69691;48.172;17.070;2023-04-29T10:02:02;19.50;;;13.13;;
14876;SDS011;69691;48.172;17.070;2023-04-29T10:04:40;18.58;;;13.80;;
14876;SDS011;69691;48.172;17.070;2023-04-29T10:07:09;19.45;;;12.50;;
14876;SDS011;69691;48.172;17.070;2023-04-29T10:09:40;22.33;;;14.07;;
14876;SDS011;69691;48.172;17.070;2023-04-29T10:12:09;18.88;;;13.50;;
14876;SDS011;69691;48.172;17.070;2023-04-29T10:14:44;22.08;;;14.50;;
14876;SDS011;69691;48.172;17.070;2023-04-29T10:17:28;19.88;;;12.85;;
14876;SDS011;69691;48.172;17.070;2023-04-29T10:20:08;20.95;;;13.20;;
14876;SDS011;69691;48.172;17.070;2023-04-29T10:22:46;23.58;;;15.23;;
14876;SDS011;69691;48.172;17.070;2023-04-29T10:25:20;21.65;;;15.57;;
14876;SDS011;69691;48.172;17.070;2023-04-29T10:27:49;26.02;;;15.77;;
14876;SDS011;69691;48.172;17.070;2023-04-29T10:30:19;24.67;;;14.65;;
14876;SDS011;69691;48.172;17.070;2023-04-29T10:32:47;24.08;;;15.90;;
14876;SDS011;69691;48.172;17.070;2023-04-29T10:35:15;21.23;;;16.17;;
14876;SDS011;69691;48.172;17.070;2023-04-29T10:37:47;24.08;;;16.05;;
14876;SDS011;69691;48.172;17.070;2023-04-29T10:40:17;26.33;;;17.98;;
14876;SDS011;69691;48.172;17.070;2023-04-29T10:43:10;33.33;;;18.40;;
14876;SDS011;69691;48.172;17.070;2023-04-29T10:45:37;25.58;;;18.17;;
14876;SDS011;69691;48.172;17.070;2023-04-29T10:50:30;27.75;;;17.73;;
14876;SDS011;69691;48.172;17.070;2023-04-29T10:53:01;26.88;;;17.73;;
14876;SDS011;69691;48.172;17.070;2023-04-29T10:55:28;26.10;;;17.48;;
14876;SDS011;69691;48.172;17.070;2023-04-29T10:57:55;25.25;;;17.75;;
14876;SDS011;69691;48.172;17.070;2023-04-29T11:00:25;24.58;;;17.88;;
14876;SDS011;69691;48.172;17.070;2023-04-29T11:02:53;28.00;;;16.95;;
14876;SDS011;69691;48.172;17.070;2023-04-29T11:05:30;30.52;;;17.40;;
14876;SDS011;69691;48.172;17.070;2023-04-29T11:10:51;27.00;;;16.90;;
14876;SDS011;69691;48.172;17.070;2023-04-29T11:13:24;23.42;;;17.38;;
14876;SDS011;69691;48.172;17.070;2023-04-29T11:16:02;24.63;;;18.13;;
14876;SDS011;69691;48.172;17.070;2023-04-29T11:18:30;20.50;;;15.70;;
14876;SDS011;69691;48.172;17.070;2023-04-29T11:23:38;22.48;;;15.23;;
14876;SDS011;69691;48.172;17.070;2023-04-29T11:26:09;19.90;;;15.88;;
14876;SDS011;69691;48.172;17.070;2023-04-29T11:28:35;22.52;;;16.30;;
14876;SDS011;69691;48.172;17.070;2023-04-29T11:31:01;23.75;;;15.02;;
14876;SDS011;69691;48.172;17.070;2023-04-29T11:33:30;21.10;;;16.30;;
14876;SDS011;69691;48.172;17.070;2023-04-29T11:35:57;22.50;;;16.75;;
14876;SDS011;69691;48.172;17.070;2023-04-29T11:38:25;20.10;;;15.45;;
14876;SDS011;69691;48.172;17.070;2023-04-29T11:40:55;21.83;;;16.27;;
14876;SDS011;69691;48.172;17.070;2023-04-29T11:43:22;23.52;;;16.10;;
14876;SDS011;69691;48.172;17.070;2023-04-29T11:45:49;24.15;;;16.55;;
14876;SDS011;69691;48.172;17.070;2023-04-29T11:48:23;24.13;;;15.55;;
14876;SDS011;69691;48.172;17.070;2023-04-29T11:50:51;19.90;;;16.65;;
14876;SDS011;69691;48.172;17.070;2023-04-29T11:53:23;24.73;;;16.08;;
14876;SDS011;69691;48.172;17.070;2023-04-29T11:55:52;23.05;;;16.73;;
14876;SDS011;69691;48.172;17.070;2023-04-29T11:58:22;24.75;;;16.85;;
14876;SDS011;69691;48.172;17.070;2023-04-29T12:00:49;20.20;;;16.77;;
14876;SDS011;69691;48.172;17.070;2023-04-29T12:03:16;20.52;;;15.52;;
14876;SDS011;69691;48.172;17.070;2023-04-29T12:05:45;23.00;;;16.48;;
14876;SDS011;69691;48.172;17.070;2023-04-29T12:08:19;20.00;;;14.57;;
14876;SDS011;69691;48.172;17.070;2023-04-29T12:10:46;21.00;;;17.23;;
14876;SDS011;69691;48.172;17.070;2023-04-29T12:13:12;23.70;;;15.88;;
14876;SDS011;69691;48.172;17.070;2023-04-29T12:15:40;22.38;;;16.35;;
14876;SDS011;69691;48.172;17.070;2023-04-29T12:18:07;23.35;;;16.73;;
14876;SDS011;69691;48.172;17.070;2023-04-29T12:20:33;21.13;;;16.38;;
14876;SDS011;69691;48.172;17.070;2023-04-29T12:23:12;21.08;;;14.90;;
14876;SDS011;69691;48.172;17.070;2023-04-29T12:25:43;23.45;;;15.65;;
14876;SDS011;69691;48.172;17.070;2023-04-29T12:28:21;23.65;;;16.00;;
14876;SDS011;69691;48.172;17.070;2023-04-29T12:30:48;19.48;;;14.85;;
14876;SDS011;69691;48.172;17.070;2023-04-29T12:33:21;24.27;;;15.60;;
14876;SDS011;69691;48.172;17.070;2023-04-29T12:35:51;18.15;;;13.98;;
14876;SDS011;69691;48.172;17.070;2023-04-29T12:38:31;20.05;;;14.88;;
14876;SDS011;69691;48.172;17.070;2023-04-29T12:40:58;22.15;;;14.43;;
14876;SDS011;69691;48.172;17.070;2023-04-29T12:43:30;19.23;;;14.48;;
14876;SDS011;69691;48.172;17.070;2023-04-29T12:46:03;21.13;;;15.35;;
14876;SDS011;69691;48.172;17.070;2023-04-29T12:48:37;21.13;;;15.13;;
14876;SDS011;69691;48.172;17.070;2023-04-29T12:51:07;25.08;;;16.98;;
14876;SDS011;69691;48.172;17.070;2023-04-29T12:53:34;23.90;;;16.35;;
14876;SDS011;69691;48.172;17.070;2023-04-29T12:56:00;22.17;;;15.68;;
14876;SDS011;69691;48.172;17.070;2023-04-29T12:58:29;24.60;;;16.65;;
14876;SDS011;69691;48.172;17.070;2023-04-29T13:00:56;24.63;;;16.90;;
14876;SDS011;69691;48.172;17.070;2023-04-29T13:03:22;22.25;;;17.98;;
14876;SDS011;69691;48.172;17.070;2023-04-29T13:05:51;24.23;;;17.75;;
14876;SDS011;69691;48.172;17.070;2023-04-29T13:08:25;21.38;;;17.02;;
14876;SDS011;69691;48.172;17.070;2023-04-29T13:10:51;23.67;;;18.33;;
14876;SDS011;69691;48.172;17.070;2023-04-29T13:13:17;26.35;;;18.23;;
14876;SDS011;69691;48.172;17.070;2023-04-29T13:15:43;25.38;;;17.02;;
14876;SDS011;69691;48.172;17.070;2023-04-29T13:18:09;22.23;;;16.50;;
14876;SDS011;69691;48.172;17.070;2023-04-29T13:20:35;19.77;;;16.35;;
14876;SDS011;69691;48.172;17.070;2023-04-29T13:23:01;20.27;;;17.23;;
14876;SDS011;69691;48.172;17.070;2023-04-29T13:25:27;21.73;;;16.92;;
14876;SDS011;69691;48.172;17.070;2023-04-29T13:27:52;27.05;;;17.05;;
14876;SDS011;69691;48.172;17.070;2023-04-29T13:30:18;21.67;;;16.20;;
14876;SDS011;69691;48.172;17.070;2023-04-29T13:32:44;19.80;;;15.40;;
14876;SDS011;69691;48.172;17.070;2023-04-29T13:35:10;29.75;;;16.20;;
14876;SDS011;69691;48.172;17.070;2023-04-29T13:37:36;24.33;;;15.65;;
14876;SDS011;69691;48.172;17.070;2023-04-29T13:40:02;21.25;;;14.98;;
14876;SDS011;69691;48.172;17.070;2023-04-29T13:42:29;19.42;;;15.05;;
14876;SDS011;69691;48.172;17.070;2023-04-29T13:44:55;20.25;;;14.93;;
14876;SDS011;69691;48.172;17.070;2023-04-29T13:47:21;18.92;;;13.68;;
14876;SDS011;69691;48.172;17.070;2023-04-29T13:49:47;17.48;;;14.50;;
14876;SDS011;69691;48.172;17.070;2023-04-29T13:52:13;15.10;;;12.30;;
14876;SDS011;69691;48.172;17.070;2023-04-29T13:54:39;18.20;;;13.82;;
14876;SDS011;69691;48.172;17.070;2023-04-29T13:57:05;17.63;;;14.00;;
14876;SDS011;69691;48.172;17.070;2023-04-29T13:59:32;16.35;;;12.77;;
14876;SDS011;69691;48.172;17.070;2023-04-29T14:01:59;16.58;;;14.25;;
14876;SDS011;69691;48.172;17.070;2023-04-29T14:04:26;17.15;;;15.05;;
14876;SDS011;69691;48.172;17.070;2023-04-29T14:06:56;17.35;;;14.15;;
14876;SDS011;69691;48.172;17.070;2023-04-29T14:09:22;17.80;;;13.73;;
14876;SDS011;69691;48.172;17.070;2023-04-29T14:11:48;17.00;;;13.07;;
14876;SDS011;69691;48.172;17.070;2023-04-29T14:14:14;15.30;;;13.43;;
14876;SDS011;69691;48.172;17.070;2023-04-29T14:16:41;15.30;;;12.98;;
14876;SDS011;69691;48.172;17.070;2023-04-29T14:19:07;17.13;;;13.10;;
14876;SDS011;69691;48.172;17.070;2023-04-29T14:21:33;18.80;;;13.65;;
14876;SDS011;69691;48.172;17.070;2023-04-29T14:23:59;19.75;;;14.80;;
14876;SDS011;69691;48.172;17.070;2023-04-29T14:26:27;18.58;;;14.32;;
14876;SDS011;69691;48.172;17.070;2023-04-29T14:28:54;19.58;;;14.20;;
14876;SDS011;69691;48.172;17.070;2023-04-29T14:31:24;16.60;;;13.30;;
14876;SDS011;69691;48.172;17.070;2023-04-29T14:33:54;19.02;;;15.32;;
14876;SDS011;69691;48.172;17.070;2023-04-29T14:36:21;19.15;;;15.48;;
14876;SDS011;69691;48.172;17.070;2023-04-29T14:38:47;18.88;;;14.95;;
14876;SDS011;69691;48.172;17.070;2023-04-29T14:41:13;20.73;;;15.77;;
14876;SDS011;69691;48.172;17.070;2023-04-29T14:43:39;22.90;;;16.92;;
14876;SDS011;69691;48.172;17.070;2023-04-29T14:46:06;21.52;;;16.23;;